Time;durP1;ratioP1;P1;durP2;ratioP2;P2;SDS_P1;SDS_P2;PMS_P1;PMS_P2;Temp;Humidity;BMP_temperature;BMP_pressure;BME280_temperature;BME280_humidity;BME280_pressure;Samples;Min_cycle;Max_cycle;Signal;HPM_P1;HPM_P2
2022/08/23 00:01:52;;;;;;;28.98;9.20;;;;;;;25.82;76.50;99959.06;5052173;28;20063;-76
2022/08/23 00:04:28;;;;;;;24.30;8.60;;;;;;;25.71;77.12;99961.81;5052108;28;20017;-76
2022/08/23 00:06:55;;;;;;;22.63;8.32;;;;;;;25.68;77.39;99960.41;5052072;28;20028;-75
2022/08/23 00:09:23;;;;;;;17.92;6.93;;;;;;;25.68;77.39;99954.88;5051255;28;20537;-75
2022/08/23 00:12:01;;;;;;;20.23;8.20;;;;;;;25.69;77.05;99962.06;5051853;28;20086;-75
2022/08/23 00:14:30;;;;;;;24.80;9.18;;;;;;;25.64;77.74;99969.38;5051895;28;20108;-75
2022/08/23 00:16:56;;;;;;;17.40;8.20;;;;;;;25.72;77.10;99964.31;5051746;28;20033;-75
2022/08/23 00:19:23;;;;;;;28.80;8.13;;;;;;;25.72;77.33;99966.25;5051914;28;20055;-75
2022/08/23 00:21:50;;;;;;;27.90;8.02;;;;;;;25.75;77.12;99974.03;5051618;28;20032;-75
2022/08/23 00:24:17;;;;;;;19.23;8.43;;;;;;;25.80;76.98;99968.66;5051856;28;20060;-77
2022/08/23 00:27:03;;;;;;;28.70;10.20;;;;;;;25.86;77.07;99979.56;5050616;28;20534;-76
2022/08/23 00:29:51;;;;;;;18.98;8.13;;;;;;;25.90;76.86;99980.72;5051819;28;20605;-76
2022/08/23 00:32:20;;;;;;;18.77;8.27;;;;;;;25.90;76.64;99982.69;5051393;28;20128;-74
2022/08/23 00:34:46;;;;;;;21.42;8.25;;;;;;;25.89;76.27;99986.50;5051755;28;20379;-75
2022/08/23 00:37:12;;;;;;;21.27;8.88;;;;;;;25.85;76.31;99986.13;5051642;28;20029;-76
2022/08/23 00:39:39;;;;;;;17.05;8.40;;;;;;;25.80;76.14;99986.03;5051826;28;20100;-76
2022/08/23 00:47:57;;;;;;;23.58;9.45;;;;;;;25.75;76.05;99982.28;5051811;28;20124;-75
2022/08/23 00:50:56;;;;;;;18.83;8.43;;;;;;;25.71;76.34;99987.47;5051446;28;20107;-76
2022/08/23 00:53:30;;;;;;;23.70;9.10;;;;;;;25.72;75.38;99978.09;5051679;28;20131;-75
2022/08/23 00:56:00;;;;;;;17.80;9.57;;;;;;;25.59;75.39;99983.88;5051723;28;20025;-76
2022/08/23 00:58:27;;;;;;;21.35;10.50;;;;;;;25.52;75.16;99988.63;5051635;28;20037;-75
2022/08/23 01:00:55;;;;;;;21.40;10.15;;;;;;;25.39;75.26;99975.88;5051448;28;20093;-76
2022/08/23 01:03:24;;;;;;;20.02;8.68;;;;;;;25.39;75.03;99980.56;5051327;28;20028;-76
2022/08/23 01:05:52;;;;;;;31.25;9.93;;;;;;;25.34;74.99;99991.44;5051418;28;20013;-76
2022/08/23 01:08:22;;;;;;;24.30;11.05;;;;;;;25.25;75.14;99981.84;5051448;28;20078;-76
2022/08/23 01:10:54;;;;;;;26.52;8.88;;;;;;;25.26;75.24;99991.75;5051590;28;20100;-76
2022/08/23 01:13:28;;;;;;;23.02;9.55;;;;;;;25.30;75.08;99991.06;5051603;28;20035;-76
2022/08/23 01:16:10;;;;;;;23.13;10.18;;;;;;;25.28;74.97;99989.63;5051318;28;20055;-75
2022/08/23 01:18:37;;;;;;;34.65;8.93;;;;;;;25.32;74.92;99999.94;5051464;28;20029;-76
2022/08/23 01:21:15;;;;;;;27.65;8.43;;;;;;;25.35;74.64;99998.63;5053582;28;20029;-76
2022/08/23 01:23:48;;;;;;;23.67;8.88;;;;;;;25.28;74.70;99993.22;5055101;28;20104;-76
2022/08/23 01:26:16;;;;;;;24.77;9.88;;;;;;;25.28;75.05;99998.75;5054963;28;20035;-76
2022/08/23 01:28:42;;;;;;;26.42;9.50;;;;;;;25.28;75.21;99997.91;5055011;28;20501;-76
2022/08/23 01:31:09;;;;;;;15.05;9.25;;;;;;;25.25;74.92;99992.88;5054964;28;20025;-76
2022/08/23 01:33:36;;;;;;;29.90;9.73;;;;;;;25.20;74.66;99978.94;5054698;28;20032;-76
2022/08/23 01:36:03;;;;;;;27.90;10.73;;;;;;;25.28;74.26;99995.16;5054874;28;20130;-76
2022/08/23 01:38:28;;;;;;;17.30;10.07;;;;;;;25.15;74.17;99987.09;5054795;28;20099;-75
2022/08/23 01:40:54;;;;;;;26.67;10.30;;;;;;;25.12;74.35;99987.53;5054802;28;20542;-76
2022/08/23 01:43:21;;;;;;;25.83;9.98;;;;;;;25.07;74.66;99992.94;5054547;28;20132;-75
2022/08/23 01:45:49;;;;;;;21.17;8.93;;;;;;;25.08;74.86;99991.84;5054673;28;20047;-76
2022/08/23 01:48:15;;;;;;;19.38;10.52;;;;;;;25.02;74.95;99987.25;5054519;28;20555;-76
2022/08/23 01:50:41;;;;;;;21.88;9.90;;;;;;;25.03;74.91;99994.47;5054250;28;20053;-76
2022/08/23 01:53:07;;;;;;;24.50;9.95;;;;;;;25.07;74.93;99987.41;5054398;28;20090;-75
2022/08/23 01:55:33;;;;;;;20.15;8.82;;;;;;;25.07;75.00;99995.69;5054301;28;20029;-76
2022/08/23 01:58:01;;;;;;;27.27;9.35;;;;;;;25.07;75.08;99990.19;5054462;28;20028;-76
2022/08/23 02:00:31;;;;;;;20.15;10.02;;;;;;;25.06;74.90;99994.84;5054456;28;20094;-76
2022/08/23 02:02:58;;;;;;;19.05;8.80;;;;;;;25.03;74.69;100000.81;5054264;28;20028;-75
2022/08/23 02:05:24;;;;;;;22.13;8.15;;;;;;;24.99;74.96;100005.09;5054105;28;20490;-75
2022/08/23 02:07:50;;;;;;;30.05;10.65;;;;;;;24.99;74.79;100001.50;5054227;28;20037;-75
2022/08/23 02:10:16;;;;;;;28.60;10.18;;;;;;;24.94;74.86;99991.19;5054087;28;20033;-75
2022/08/23 02:12:41;;;;;;;19.65;9.00;;;;;;;25.07;74.51;100002.03;5053992;28;20036;-75
2022/08/23 02:15:07;;;;;;;19.90;9.05;;;;;;;25.07;74.93;100003.94;5053997;28;20025;-75
2022/08/23 02:17:33;;;;;;;21.55;9.50;;;;;;;25.05;75.84;100003.31;5054002;28;20025;-75
2022/08/23 02:20:00;;;;;;;33.83;10.63;;;;;;;25.10;77.10;100003.47;5054042;28;20032;-75
2022/08/23 02:22:26;;;;;;;23.40;9.68;;;;;;;25.12;78.60;100004.06;5053859;28;20587;-75
2022/08/23 02:24:52;;;;;;;29.02;10.13;;;;;;;25.17;79.34;100015.19;5053824;28;20029;-76
2022/08/23 02:27:17;;;;;;;31.40;9.45;;;;;;;25.18;79.49;100020.47;5053972;28;20036;-75
2022/08/23 02:29:45;;;;;;;27.05;9.73;;;;;;;25.15;79.44;100015.44;5053797;28;20356;-75
2022/08/23 02:32:13;;;;;;;32.20;9.15;;;;;;;25.16;79.38;100019.88;5053218;28;20044;-74
2022/08/23 02:34:40;;;;;;;31.05;9.93;;;;;;;25.11;79.33;100016.13;5053661;28;20116;-75
2022/08/23 02:37:07;;;;;;;28.17;10.32;;;;;;;25.10;79.22;100012.56;5053673;28;20032;-75
2022/08/23 02:39:34;;;;;;;24.13;9.23;;;;;;;25.09;78.85;100016.38;5053504;28;20482;-76
2022/08/23 02:41:59;;;;;;;34.03;11.77;;;;;;;25.03;78.81;100020.06;5053684;28;20020;-76
2022/08/23 02:44:25;;;;;;;23.13;9.80;;;;;;;25.05;78.66;100025.31;5053556;28;20032;-75
2022/08/23 02:46:50;;;;;;;33.53;10.98;;;;;;;24.93;78.77;100019.78;5053367;28;20039;-76
2022/08/23 02:49:16;;;;;;;38.50;10.10;;;;;;;24.90;78.89;100029.34;5053521;28;20102;-76
2022/08/23 02:51:43;;;;;;;45.70;11.32;;;;;;;24.83;79.05;100047.84;5053099;28;20375;-76
2022/08/23 02:54:08;;;;;;;35.70;11.68;;;;;;;24.86;78.72;100043.81;5053257;28;20054;-76
2022/08/23 02:56:34;;;;;;;30.77;10.95;;;;;;;24.92;78.86;100054.69;5053279;28;20037;-75
2022/08/23 02:59:00;;;;;;;35.60;11.38;;;;;;;24.89;78.95;100059.84;5053216;28;20398;-76
2022/08/23 03:01:33;;;;;;;32.33;10.77;;;;;;;24.90;79.01;100058.75;5053116;28;20090;-76
2022/08/23 03:04:00;;;;;;;47.63;10.88;;;;;;;24.89;78.72;100068.09;5052926;28;20025;-75
2022/08/23 03:06:27;;;;;;;39.85;12.00;;;;;;;24.88;78.71;100069.16;5052754;28;20094;-75
2022/08/23 03:08:54;;;;;;;39.67;11.98;;;;;;;24.87;78.58;100073.81;5052911;28;20055;-75
2022/08/23 03:11:21;;;;;;;49.42;11.57;;;;;;;24.86;78.66;100076.81;5052988;28;20040;-75
2022/08/23 03:13:47;;;;;;;45.95;12.13;;;;;;;24.83;78.50;100078.09;5051426;28;20039;-77
2022/08/23 03:16:14;;;;;;;32.28;12.35;;;;;;;24.76;78.96;100077.31;5052814;28;20037;-75
2022/08/23 03:18:40;;;;;;;45.90;12.18;;;;;;;24.77;79.40;100079.00;5052831;28;20469;-76
2022/08/23 03:21:07;;;;;;;38.85;13.13;;;;;;;24.75;79.73;100072.88;5051435;28;20108;-75
2022/08/23 03:23:34;;;;;;;43.92;13.23;;;;;;;24.71;80.29;100077.16;5051352;28;20051;-74
2022/08/23 03:26:02;;;;;;;28.83;11.73;;;;;;;24.70;80.53;100071.91;5052558;28;20455;-74
2022/08/23 03:28:28;;;;;;;32.95;12.88;;;;;;;24.70;80.93;100075.50;5052665;28;20039;-74
2022/08/23 03:30:54;;;;;;;33.85;12.93;;;;;;;24.69;81.05;100084.81;5051158;28;20442;-73
2022/08/23 03:33:19;;;;;;;23.67;12.70;;;;;;;24.68;81.40;100087.78;5052399;28;20128;-75
2022/08/23 03:35:45;;;;;;;33.08;12.45;;;;;;;24.61;81.62;100079.63;5052462;28;20116;-75
2022/08/23 03:38:20;;;;;;;23.92;12.07;;;;;;;24.62;81.82;100091.44;5052365;28;20037;-74
2022/08/23 03:40:46;;;;;;;29.42;11.25;;;;;;;24.54;82.30;100078.84;5052614;28;20036;-74
2022/08/23 03:43:13;;;;;;;25.17;11.68;;;;;;;24.59;82.80;100089.16;5052092;28;20037;-74
2022/08/23 03:45:38;;;;;;;37.30;13.00;;;;;;;24.55;82.85;100090.69;5050780;28;20462;-75
2022/08/23 03:48:04;;;;;;;31.95;12.80;;;;;;;24.58;83.07;100096.59;5052535;28;20029;-74
2022/08/23 03:50:29;;;;;;;32.55;12.18;;;;;;;24.50;83.74;100088.63;5052137;28;20061;-74
2022/08/23 03:52:55;;;;;;;25.15;13.13;;;;;;;24.53;83.87;100093.66;5052195;28;20036;-74
2022/08/23 03:55:21;;;;;;;22.23;12.25;;;;;;;24.42;84.08;100082.59;5052119;28;20078;-74
2022/08/23 03:57:47;;;;;;;26.02;12.77;;;;;;;24.50;84.25;100094.13;5052056;28;20402;-74
2022/08/23 04:00:14;;;;;;;33.03;12.50;;;;;;;24.55;84.20;100097.03;5052108;28;20017;-74
2022/08/23 04:02:39;;;;;;;30.55;13.77;;;;;;;24.57;84.15;100100.41;5051728;28;20025;-75
2022/08/23 04:05:07;;;;;;;36.00;14.07;;;;;;;24.59;84.22;100100.16;5051785;28;20028;-75
2022/08/23 04:07:34;;;;;;;34.05;13.48;;;;;;;24.58;84.14;100096.59;5051756;28;20020;-74
2022/08/23 04:09:59;;;;;;;31.17;12.93;;;;;;;24.57;84.40;100105.91;5051647;28;20139;-75
2022/08/23 04:12:25;;;;;;;19.85;11.30;;;;;;;24.55;84.27;100112.69;5051980;28;20108;-74
2022/08/23 04:14:51;;;;;;;24.58;11.77;;;;;;;24.60;84.28;100110.94;5051780;28;20356;-74
2022/08/23 04:17:17;;;;;;;25.45;13.10;;;;;;;24.63;84.38;100106.88;5051627;28;20090;-74
2022/08/23 04:19:42;;;;;;;34.15;13.00;;;;;;;24.60;84.39;100094.44;5051687;28;20029;-74
2022/08/23 04:22:16;;;;;;;18.45;11.40;;;;;;;24.69;84.10;100100.47;5051878;28;20021;-74
2022/08/23 04:24:42;;;;;;;22.90;11.52;;;;;;;24.63;84.39;100098.63;5051787;28;20434;-75
2022/08/23 04:27:08;;;;;;;18.35;11.15;;;;;;;24.66;84.53;100093.53;5051791;28;20025;-74
2022/08/23 04:29:34;;;;;;;82.00;17.70;;;;;;;24.68;84.19;100096.88;5051512;28;20036;-75
2022/08/23 04:32:00;;;;;;;14.40;9.80;;;;;;;24.63;84.30;100080.22;5051457;28;20040;-77
2022/08/23 04:34:26;;;;;;;27.88;11.15;;;;;;;24.71;84.51;100099.16;5051495;28;20021;-74
2022/08/23 04:36:52;;;;;;;35.58;13.10;;;;;;;24.69;84.34;100095.81;5051685;28;20031;-76
2022/08/23 04:39:17;;;;;;;25.98;11.15;;;;;;;24.69;84.79;100103.22;5051839;28;20025;-75
2022/08/23 04:44:39;;;;;;;22.30;10.82;;;;;;;24.71;85.09;100101.06;5051790;28;20036;-74
2022/08/23 04:47:05;;;;;;;21.55;9.98;;;;;;;24.66;84.25;100110.03;5051403;28;20033;-72
2022/08/23 04:49:31;;;;;;;23.85;11.75;;;;;;;24.73;84.66;100105.28;5051457;28;20031;-75
2022/08/23 04:51:56;;;;;;;23.10;10.52;;;;;;;24.73;84.40;100105.28;5050375;28;20123;-76
2022/08/23 04:54:22;;;;;;;29.08;10.93;;;;;;;24.77;85.42;100112.00;5050978;28;20021;-75
2022/08/23 04:56:48;;;;;;;22.40;10.73;;;;;;;24.76;86.23;100118.59;5054918;28;20032;-74
2022/08/23 04:59:14;;;;;;;30.00;11.35;;;;;;;24.74;86.31;100117.97;5055934;28;20466;-77
2022/08/23 05:01:40;;;;;;;21.88;11.05;;;;;;;24.82;86.64;100120.47;5055543;28;20503;-75
2022/08/23 05:04:06;;;;;;;22.17;11.77;;;;;;;24.83;86.53;100122.13;5055242;28;20020;-75
2022/08/23 05:06:32;;;;;;;22.13;11.52;;;;;;;24.90;86.50;100122.88;5054342;28;20025;-75
2022/08/23 05:08:58;;;;;;;24.25;11.38;;;;;;;24.99;86.79;100131.66;5054443;28;20044;-75
2022/08/23 05:11:24;;;;;;;20.55;11.25;;;;;;;25.02;86.59;100124.84;5054299;28;20027;-75
2022/08/23 05:13:50;;;;;;;28.33;11.30;;;;;;;25.05;86.60;100128.00;5054456;28;20076;-75
2022/08/23 05:16:16;;;;;;;21.83;11.07;;;;;;;25.13;86.28;100126.84;5054349;28;20122;-74
2022/08/23 05:18:42;;;;;;;27.25;11.10;;;;;;;25.23;85.71;100135.38;5054401;28;20036;-74
2022/08/23 05:21:12;;;;;;;26.35;10.82;;;;;;;25.28;85.45;100136.38;5054466;28;20402;-75
2022/08/23 05:23:37;;;;;;;23.88;12.10;;;;;;;25.33;85.47;100141.19;5054845;28;20033;-75
2022/08/23 05:26:03;;;;;;;26.88;11.85;;;;;;;25.36;85.32;100143.47;5054538;28;20021;-75
2022/08/23 05:28:33;;;;;;;21.75;11.27;;;;;;;25.44;85.13;100132.16;5055033;28;20024;-75
2022/08/23 05:31:17;;;;;;;42.60;12.07;;;;;;;25.50;85.24;100136.75;5054778;28;20053;-74
2022/08/23 05:33:44;;;;;;;24.63;12.45;;;;;;;25.57;84.82;100134.72;5054627;28;20032;-74
2022/08/23 05:36:11;;;;;;;42.88;12.57;;;;;;;25.65;84.77;100137.16;5054630;28;20028;-75
2022/08/23 05:38:38;;;;;;;35.90;11.32;;;;;;;25.71;84.64;100133.47;5054594;28;20437;-75
2022/08/23 05:41:04;;;;;;;21.02;11.45;;;;;;;25.75;84.38;100125.53;5054429;28;20035;-76
2022/08/23 05:43:30;;;;;;;31.02;12.50;;;;;;;25.90;83.81;100139.75;5054439;28;20489;-75
2022/08/23 05:46:03;;;;;;;36.30;12.73;;;;;;;26.04;83.38;100135.69;5054442;28;20036;-75
2022/08/23 05:48:28;;;;;;;38.15;11.73;;;;;;;26.13;83.02;100133.41;5054462;28;20470;-75
2022/08/23 05:50:54;;;;;;;51.42;14.05;;;;;;;26.20;83.12;100124.00;5054322;28;20063;-74
2022/08/23 05:53:19;;;;;;;36.58;13.30;;;;;;;26.27;83.14;100137.66;5054446;28;20545;-75
2022/08/23 05:55:45;;;;;;;33.80;11.88;;;;;;;26.34;82.72;100130.09;5054196;28;20467;-75
2022/08/23 05:58:12;;;;;;;40.95;17.63;;;;;;;26.44;82.62;100128.44;5054140;28;20060;-75
2022/08/23 06:00:37;;;;;;;44.38;15.20;;;;;;;26.50;81.80;100129.41;5054238;28;20021;-75
2022/08/23 06:03:03;;;;;;;33.15;11.93;;;;;;;26.61;81.37;100123.00;5054236;28;20112;-77
2022/08/23 06:05:28;;;;;;;35.55;13.18;;;;;;;26.72;81.00;100127.69;5053988;28;20455;-75
2022/08/23 06:07:54;;;;;;;63.38;14.18;;;;;;;26.82;80.78;100132.63;5052951;28;20021;-75
2022/08/23 06:10:20;;;;;;;52.47;13.32;;;;;;;26.93;79.72;100135.38;5053971;28;20033;-76
2022/08/23 06:12:46;;;;;;;45.85;12.18;;;;;;;27.01;79.49;100134.13;5053821;28;20029;-75
2022/08/23 06:15:12;;;;;;;39.45;11.25;;;;;;;27.06;79.19;100133.41;5053728;28;20061;-75
2022/08/23 06:17:38;;;;;;;34.00;12.13;;;;;;;27.16;78.84;100136.38;5053561;28;20033;-75
2022/08/23 06:20:05;;;;;;;48.47;13.32;;;;;;;27.22;78.35;100132.63;5053353;28;20104;-77
2022/08/23 06:22:30;;;;;;;46.63;12.63;;;;;;;27.35;77.90;100126.81;5053434;28;20032;-76
2022/08/23 06:24:55;;;;;;;47.97;12.60;;;;;;;27.46;77.40;100134.28;5053453;28;20422;-76
2022/08/23 06:27:21;;;;;;;39.67;11.25;;;;;;;27.53;76.44;100141.31;5053636;28;20031;-75
2022/08/23 06:29:47;;;;;;;32.70;10.23;;;;;;;27.56;75.83;100142.75;5053654;28;20080;-75
2022/08/23 06:32:13;;;;;;;38.75;9.80;;;;;;;27.64;74.84;100145.13;5053150;28;20036;-75
2022/08/23 06:34:39;;;;;;;37.88;9.60;;;;;;;27.77;74.29;100147.56;5052936;28;20025;-74
2022/08/23 06:37:08;;;;;;;33.00;8.63;;;;;;;27.89;73.75;100145.56;5053070;28;20028;-75
2022/08/23 06:39:35;;;;;;;42.92;11.65;;;;;;;27.97;73.63;100142.41;5053529;28;20062;-74
2022/08/23 06:42:05;;;;;;;30.50;10.80;;;;;;;28.14;72.55;100138.81;5053257;28;20029;-74
2022/08/23 06:44:32;;;;;;;41.08;9.85;;;;;;;28.21;72.60;100132.06;5052897;28;20025;-74
2022/08/23 06:46:58;;;;;;;44.30;9.73;;;;;;;28.36;71.46;100145.28;5053309;28;20410;-73
2022/08/23 06:49:24;;;;;;;36.72;9.80;;;;;;;28.38;70.95;100138.41;5051741;28;20033;-74
2022/08/23 06:51:55;;;;;;;47.13;9.50;;;;;;;28.36;70.52;100145.28;5053159;28;20053;-74
2022/08/23 06:54:25;;;;;;;39.83;9.75;;;;;;;28.26;70.07;100134.03;5052448;28;20550;-75
2022/08/23 06:56:52;;;;;;;35.47;9.07;;;;;;;28.36;70.04;100156.34;5052909;28;20029;-74
2022/08/23 06:59:19;;;;;;;40.70;9.63;;;;;;;28.39;70.22;100166.91;5053060;28;20467;-75
2022/08/23 07:01:54;;;;;;;74.93;11.63;;;;;;;28.37;70.61;100163.56;5052746;28;20028;-74
2022/08/23 07:04:23;;;;;;;44.55;10.30;;;;;;;28.42;69.61;100166.41;5052611;28;20044;-74
2022/08/23 07:06:49;;;;;;;46.65;8.30;;;;;;;28.31;69.61;100170.94;5051645;28;20398;-75
2022/08/23 07:09:15;;;;;;;40.33;9.80;;;;;;;28.31;69.77;100170.94;5051541;28;20029;-75
2022/08/23 07:11:41;;;;;;;55.05;9.98;;;;;;;28.41;69.90;100167.47;5052560;28;20106;-75
2022/08/23 07:14:11;;;;;;;41.33;9.75;;;;;;;28.43;69.69;100162.56;5052917;28;20033;-75
2022/08/23 07:16:39;;;;;;;47.33;9.30;;;;;;;28.55;69.27;100174.38;5052574;28;20024;-75
2022/08/23 07:19:05;;;;;;;27.83;9.85;;;;;;;28.62;69.00;100161.19;5052572;28;20028;-74
2022/08/23 07:21:31;;;;;;;43.00;10.50;;;;;;;28.72;69.67;100166.91;5052309;28;20021;-74
2022/08/23 07:23:58;;;;;;;45.15;10.52;;;;;;;28.76;69.59;100157.00;5052090;28;20410;-74
2022/08/23 07:26:24;;;;;;;40.35;10.32;;;;;;;28.81;68.59;100154.28;5051152;28;20147;-75
2022/08/23 07:28:50;;;;;;;60.35;11.35;;;;;;;28.88;68.87;100146.66;5051978;28;20086;-75
2022/08/23 07:31:29;;;;;;;43.97;10.30;;;;;;;29.13;68.77;100157.22;5052073;28;21141;-75
2022/08/23 07:33:57;;;;;;;50.47;10.02;;;;;;;29.26;67.54;100161.56;5052492;28;20051;-75
2022/08/23 07:36:25;;;;;;;40.35;10.13;;;;;;;29.27;66.77;100160.47;5052195;28;20025;-75
2022/08/23 07:38:51;;;;;;;95.75;14.07;;;;;;;29.43;66.12;100168.72;5052149;28;20039;-75
2022/08/23 07:41:23;;;;;;;46.42;10.63;;;;;;;29.46;65.14;100161.81;5051898;28;20027;-75
2022/08/23 07:43:49;;;;;;;49.30;10.88;;;;;;;29.38;64.75;100162.28;5051920;28;20025;-74
2022/08/23 07:46:15;;;;;;;31.20;7.97;;;;;;;29.38;64.87;100165.06;5051943;28;20029;-74
2022/08/23 07:48:40;;;;;;;48.38;10.23;;;;;;;29.42;64.77;100183.66;5051333;28;20091;-75
2022/08/23 07:51:10;;;;;;;41.75;8.43;;;;;;;29.49;64.37;100180.69;5051725;28;20127;-75
2022/08/23 07:53:35;;;;;;;54.08;8.85;;;;;;;29.57;64.07;100180.25;5051562;28;20047;-75
2022/08/23 07:56:10;;;;;;;39.90;8.55;;;;;;;29.67;63.54;100174.78;5051865;28;20025;-75
2022/08/23 07:58:35;;;;;;;42.65;9.05;;;;;;;29.60;63.45;100160.31;5051815;28;20063;-75
2022/08/23 08:01:28;;;;;;;61.22;9.52;;;;;;;29.80;63.74;100179.94;5051330;28;20101;-75
2022/08/23 08:03:59;;;;;;;47.13;9.60;;;;;;;29.94;63.09;100175.66;5029396;28;20048;-75
2022/08/23 08:06:29;;;;;;;66.20;11.68;;;;;;;29.94;62.96;100175.66;5032840;28;20102;-75
2022/08/23 08:08:56;;;;;;;59.38;9.88;;;;;;;29.98;61.69;100175.97;5031858;28;20060;-76
2022/08/23 08:11:25;;;;;;;46.78;10.07;;;;;;;29.91;62.14;100170.63;5031930;28;20029;-76
2022/08/23 08:13:51;;;;;;;59.70;10.80;;;;;;;29.85;62.26;100163.38;5031864;28;20033;-75
2022/08/23 08:16:21;;;;;;;45.42;9.93;;;;;;;29.92;62.24;100172.31;5038100;28;20035;-75
2022/08/23 08:18:46;;;;;;;41.17;9.65;;;;;;;30.06;62.10;100161.66;5051959;28;20029;-75
2022/08/23 08:21:16;;;;;;;46.22;8.80;;;;;;;30.13;60.61;100156.69;5051758;28;20032;-74
2022/08/23 08:23:42;;;;;;;57.10;9.05;;;;;;;30.09;60.01;100145.28;5051827;28;20113;-75
2022/08/23 08:26:09;;;;;;;33.63;7.25;;;;;;;30.21;60.28;100145.94;5051437;28;20453;-75
2022/08/23 08:28:35;;;;;;;44.08;8.55;;;;;;;30.16;60.46;100142.31;5051464;28;20106;-75
2022/08/23 08:31:01;;;;;;;57.60;9.38;;;;;;;30.19;60.80;100139.84;5050748;28;20070;-75
2022/08/23 08:33:27;;;;;;;48.88;9.05;;;;;;;30.29;59.98;100144.63;5051586;28;20040;-75
2022/08/23 08:35:53;;;;;;;44.97;8.15;;;;;;;30.27;59.16;100132.97;5051050;28;20462;-75
2022/08/23 08:38:19;;;;;;;38.83;7.88;;;;;;;30.23;58.63;100134.59;5051540;28;20029;-75
2022/08/23 08:40:47;;;;;;;30.00;8.15;;;;;;;30.42;58.06;100123.94;5051529;28;20030;-75
2022/08/23 08:43:13;;;;;;;32.50;7.93;;;;;;;30.48;56.78;100125.66;5051330;28;20029;-75
2022/08/23 08:45:56;;;;;;;41.65;7.82;;;;;;;30.65;56.80;100120.75;5051181;28;20094;-75
2022/08/23 08:48:24;;;;;;;32.63;7.10;;;;;;;30.75;56.69;100120.81;5051461;28;20115;-75
2022/08/23 08:50:58;;;;;;;46.38;8.43;;;;;;;30.64;56.67;100125.47;5050959;28;20052;-75
2022/08/23 08:53:32;;;;;;;37.55;7.45;;;;;;;30.68;56.60;100125.78;5050870;28;20142;-75
2022/08/23 08:56:17;;;;;;;44.50;7.72;;;;;;;30.66;56.63;100119.66;5051053;28;20033;-75
2022/08/23 08:59:00;;;;;;;38.70;6.95;;;;;;;30.74;56.45;100121.91;5051047;28;20021;-74
2022/08/23 09:01:28;;;;;;;28.95;7.63;;;;;;;30.66;55.82;100128.84;5051109;28;20391;-75
2022/08/23 09:03:55;;;;;;;44.35;8.18;;;;;;;30.71;56.73;100139.13;5050728;28;20522;-75
2022/08/23 09:06:33;;;;;;;33.75;7.40;;;;;;;30.79;56.46;100138.63;5050865;28;20475;-75
2022/08/23 09:09:26;;;;;;;32.05;6.65;;;;;;;30.91;55.92;100146.75;5061176;28;20036;-75
2022/08/23 09:11:55;;;;;;;29.67;6.47;;;;;;;30.93;55.46;100161.19;5029993;28;20026;-74
2022/08/23 09:14:23;;;;;;;48.17;8.10;;;;;;;31.03;61.28;100156.56;5041080;28;20120;-74
2022/08/23 09:16:53;;;;;;;28.15;8.38;;;;;;;30.95;63.52;100151.50;5051111;28;20495;-74
2022/08/23 09:19:21;;;;;;;39.40;8.82;;;;;;;30.83;64.54;100161.97;5050723;28;20056;-74
2022/08/23 09:21:46;;;;;;;53.50;9.90;;;;;;;30.79;65.58;100166.41;5050713;28;20029;-74
2022/08/23 09:24:13;;;;;;;52.03;9.35;;;;;;;30.83;65.70;100173.06;5050481;28;20104;-74
2022/08/23 09:26:39;;;;;;;42.25;9.80;;;;;;;30.80;65.58;100173.59;5050863;28;20032;-74
2022/08/23 09:29:22;;;;;;;60.88;10.30;;;;;;;30.70;66.26;100184.69;5051690;28;20057;-74
2022/08/23 09:32:00;;;;;;;49.00;9.32;;;;;;;30.68;66.44;100178.53;5041208;28;20033;-73
2022/08/23 09:34:29;;;;;;;90.93;12.90;;;;;;;30.65;66.56;100177.13;5049967;28;20031;-73
2022/08/23 09:37:18;;;;;;;85.35;13.68;;;;;;;30.68;65.56;100184.94;5050265;28;20037;-74
2022/08/23 09:40:06;;;;;;;41.97;8.85;;;;;;;30.71;65.04;100191.88;5049674;28;20025;-75
2022/08/23 09:42:37;;;;;;;37.42;7.25;;;;;;;30.68;64.74;100187.69;5051699;28;20036;-75
2022/08/23 09:45:25;;;;;;;46.88;10.00;;;;;;;30.62;66.39;100183.22;5054073;28;20478;-74
2022/08/23 09:47:51;;;;;;;34.70;7.80;;;;;;;30.69;66.42;100178.28;5052402;28;20035;-75
2022/08/23 09:50:26;;;;;;;47.42;9.10;;;;;;;30.74;66.92;100191.34;5053793;28;20024;-75
2022/08/23 09:52:58;;;;;;;43.08;8.30;;;;;;;30.73;66.81;100189.69;5053873;28;20033;-75
2022/08/23 09:55:30;;;;;;;49.22;9.40;;;;;;;30.69;65.79;100188.53;5051994;28;20033;-75
2022/08/23 09:57:58;;;;;;;49.92;8.20;;;;;;;30.77;65.06;100185.25;5053438;28;20037;-74
2022/08/23 10:00:23;;;;;;;47.88;8.05;;;;;;;30.94;64.46;100185.09;5053683;28;20029;-74
2022/08/23 10:02:50;;;;;;;51.88;7.95;;;;;;;31.00;63.17;100184.03;5053569;28;20025;-74
2022/08/23 10:05:19;;;;;;;46.30;7.82;;;;;;;31.09;61.78;100193.53;5053266;28;20509;-74
2022/08/23 10:08:01;;;;;;;40.97;8.13;;;;;;;31.10;61.76;100184.91;5053465;28;20593;-74
2022/08/23 10:10:35;;;;;;;46.75;7.85;;;;;;;31.06;61.60;100188.53;5053794;28;20139;-75
2022/08/23 10:13:02;;;;;;;36.05;7.57;;;;;;;30.97;61.44;100185.44;5053840;28;20478;-74
2022/08/23 10:16:02;;;;;;;41.15;7.35;;;;;;;31.09;63.58;100180.50;5053661;28;20090;-74
2022/08/23 10:18:38;;;;;;;39.38;8.25;;;;;;;31.18;62.85;100178.88;5033298;28;20048;-75
2022/08/23 10:21:22;;;;;;;35.95;8.20;;;;;;;31.14;63.33;100182.44;5050177;28;20025;-74
2022/08/23 10:24:11;;;;;;;39.42;8.68;;;;;;;31.33;61.12;100168.91;5051070;28;20434;-75
2022/08/23 10:26:45;;;;;;;39.05;8.52;;;;;;;31.42;60.16;100170.06;5052943;28;20520;-75
2022/08/23 10:29:37;;;;;;;32.45;6.80;;;;;;;31.51;60.20;100174.84;5047535;28;20059;-75
2022/08/23 10:32:20;;;;;;;47.72;7.00;;;;;;;31.53;60.06;100177.38;5050976;28;20402;-75
2022/08/23 10:35:05;;;;;;;28.23;6.30;;;;;;;31.54;60.10;100184.59;5052897;28;20072;-75
2022/08/23 10:37:48;;;;;;;53.88;7.82;;;;;;;31.50;60.24;100180.66;5061413;28;20040;-75
2022/08/23 10:40:33;;;;;;;38.38;6.70;;;;;;;31.24;59.25;100186.13;5073433;28;20036;-74
2022/08/23 10:43:24;;;;;;;29.65;7.05;;;;;;;31.31;61.21;100187.81;5052255;28;20053;-74
2022/08/23 10:45:51;;;;;;;25.35;7.38;;;;;;;31.29;61.59;100183.34;5053401;28;20506;-75
2022/08/23 10:48:27;;;;;;;42.58;7.40;;;;;;;31.29;62.65;100186.13;5051177;28;20032;-75
2022/08/23 10:51:05;;;;;;;43.22;9.52;;;;;;;31.44;62.92;100187.28;5051065;28;20060;-74
2022/08/23 10:53:45;;;;;;;35.97;7.55;;;;;;;31.47;62.46;100189.53;5052391;28;20032;-74
2022/08/23 10:56:17;;;;;;;33.88;7.00;;;;;;;31.61;61.71;100185.19;5053157;28;20547;-74
2022/08/23 10:59:22;;;;;;;;;;;;;;;31.71;59.52;100174.91;5053494;28;20044;-74
2022/08/23 11:02:05;;;;;;;43.17;8.38;;;;;;;31.68;57.28;100167.09;4993455;28;20002;-74
2022/08/23 11:05:05;;;;;;;36.22;7.22;;;;;;;31.83;57.70;100166.31;5009497;28;20078;-73
2022/08/23 11:07:36;;;;;;;22.27;6.35;;;;;;;31.90;58.45;100172.44;5045532;28;20068;-74
2022/08/23 11:10:28;;;;;;;26.20;7.07;;;;;;;31.83;57.60;100166.31;5052396;28;20487;-73
2022/08/23 11:12:57;;;;;;;28.13;5.68;;;;;;;31.80;55.97;100161.31;5053884;28;20040;-73
2022/08/23 11:15:36;;;;;;;54.35;8.15;;;;;;;31.83;56.08;100160.75;5049195;28;20036;-72
2022/08/23 11:18:06;;;;;;;33.40;6.93;;;;;;;31.76;56.68;100161.03;5057974;28;20032;-73
2022/08/23 11:20:54;;;;;;;36.83;7.78;;;;;;;31.82;58.27;100170.22;5052612;28;20052;-72
2022/08/23 11:23:41;;;;;;;41.70;8.32;;;;;;;31.70;58.13;100167.69;5051367;28;20086;-73
2022/08/23 11:26:35;;;;;;;56.00;9.00;;;;;;;31.65;61.59;100167.66;5051842;28;20104;-74
2022/08/23 11:29:06;;;;;;;46.85;8.68;;;;;;;31.39;63.96;100176.16;5024104;28;20051;-74
2022/08/23 11:31:46;;;;;;;36.07;8.23;;;;;;;31.21;65.34;100171.94;5052625;28;20025;-73
2022/08/23 11:34:23;;;;;;;29.98;7.55;;;;;;;31.01;65.64;100171.84;5052457;28;20033;-73
2022/08/23 11:37:20;;;;;;;31.67;8.30;;;;;;;30.85;66.15;100170.03;5051468;28;20025;-73